createdAt,value
2022-09-14T00:01:57.474Z,99.90
2022-09-14T00:06:09.972Z,99.90
2022-09-14T00:10:17.770Z,99.90
2022-09-14T00:14:25.793Z,99.90
2022-09-14T00:18:34.740Z,99.90
2022-09-14T00:22:42.617Z,99.90
2022-09-14T00:26:49.540Z,99.90
2022-09-14T00:30:53.460Z,99.90
2022-09-14T00:35:00.095Z,99.90
2022-09-14T00:39:08.129Z,99.90
2022-09-14T00:43:17.261Z,99.90
2022-09-14T00:47:22.784Z,99.90
2022-09-14T00:51:30.237Z,99.90
2022-09-14T00:55:39.298Z,99.90
2022-09-14T00:59:47.127Z,99.90
2022-09-14T01:03:52.215Z,99.90
2022-09-14T01:08:12.768Z,99.90
2022-09-14T01:12:32.697Z,99.90
2022-09-14T01:16:47.308Z,99.90
2022-09-14T01:20:58.270Z,99.90
2022-09-14T01:25:15.583Z,99.90
2022-09-14T01:29:25.923Z,99.90
2022-09-14T01:33:35.576Z,99.90
2022-09-14T01:37:47.052Z,99.90
2022-09-14T01:41:54.651Z,99.90
2022-09-14T01:46:10.791Z,99.90
2022-09-14T01:50:21.997Z,99.90
2022-09-14T01:54:31.233Z,99.90
2022-09-14T01:58:39.402Z,99.90
2022-09-14T02:02:50.437Z,99.90
2022-09-14T02:06:54.587Z,99.90
2022-09-14T02:10:59.769Z,99.90
2022-09-14T02:15:05.248Z,99.90
2022-09-14T02:19:12.480Z,99.90
2022-09-14T02:23:19.911Z,99.90
2022-09-14T02:27:25.089Z,99.90
2022-09-14T02:31:38.847Z,99.90
2022-09-14T02:35:50.486Z,99.90
2022-09-14T02:40:03.957Z,99.90
2022-09-14T02:44:17.858Z,99.90
2022-09-14T02:48:32.039Z,99.90
2022-09-14T02:52:49.062Z,99.90
2022-09-14T02:56:55.662Z,99.90
2022-09-14T03:01:00.456Z,99.90
2022-09-14T03:05:04.926Z,99.90
2022-09-14T03:09:11.485Z,99.90
2022-09-14T03:13:14.790Z,99.90
2022-09-14T03:17:18.113Z,99.90
2022-09-14T03:21:21.396Z,99.90
2022-09-14T03:25:26.415Z,99.90
2022-09-14T03:29:30.059Z,99.90
2022-09-14T03:33:33.307Z,99.90
2022-09-14T03:37:38.679Z,99.90
2022-09-14T03:41:43.210Z,99.90
2022-09-14T03:45:46.876Z,99.90
2022-09-14T03:49:50.901Z,99.90
2022-09-14T03:53:54.631Z,99.90
2022-09-14T03:57:59.330Z,99.90
2022-09-14T04:02:02.886Z,99.90
2022-09-14T04:06:07.266Z,99.90
2022-09-14T04:10:11.619Z,99.90
2022-09-14T04:14:16.466Z,99.90
2022-09-14T04:18:19.676Z,99.90
2022-09-14T04:22:22.889Z,99.90
2022-09-14T04:26:28.227Z,99.90
2022-09-14T04:30:34.467Z,99.90
2022-09-14T04:34:37.767Z,99.90
2022-09-14T04:38:42.321Z,99.90
2022-09-14T04:42:45.466Z,99.90
2022-09-14T04:46:50.318Z,99.90
2022-09-14T04:50:53.399Z,99.90
2022-09-14T04:54:58.305Z,99.90
2022-09-14T04:59:04.362Z,99.90
2022-09-14T05:03:09.158Z,99.90
2022-09-14T05:07:12.344Z,99.90
2022-09-14T05:11:17.469Z,99.90
2022-09-14T05:15:20.758Z,99.90
2022-09-14T05:19:27.249Z,99.90
2022-09-14T05:23:30.957Z,99.90
2022-09-14T05:27:34.430Z,99.90
2022-09-14T05:31:40.555Z,99.90
2022-09-14T05:35:49.255Z,99.90
2022-09-14T05:39:53.684Z,99.90
2022-09-14T05:43:56.968Z,99.90
2022-09-14T05:48:04.791Z,99.90
2022-09-14T05:52:09.278Z,99.90
2022-09-14T05:56:14.332Z,99.90
2022-09-14T06:00:18.106Z,99.90
2022-09-14T06:04:24.743Z,99.90
2022-09-14T06:08:34.110Z,99.90
2022-09-14T06:12:40.382Z,99.90
2022-09-14T06:16:47.073Z,99.90
2022-09-14T06:20:53.343Z,99.90
2022-09-14T06:24:57.980Z,99.90
2022-09-14T06:29:28.966Z,99.90
2022-09-14T06:33:35.028Z,99.90
2022-09-14T06:37:42.431Z,99.90
2022-09-14T06:41:47.372Z,99.90
2022-09-14T06:45:58.264Z,99.90
2022-09-14T06:50:01.950Z,99.90
2022-09-14T06:54:06.696Z,99.90
2022-09-14T06:58:12.488Z,99.90
2022-09-14T07:02:16.054Z,99.90
2022-09-14T07:11:42.405Z,99.90
2022-09-14T07:16:13.502Z,99.90
2022-09-14T07:20:17.049Z,99.90
2022-09-14T07:24:20.340Z,99.90
2022-09-14T07:28:24.549Z,99.90
2022-09-14T07:32:29.059Z,99.90
2022-09-14T07:36:35.091Z,99.90
2022-09-14T07:40:41.055Z,99.90
2022-09-14T07:44:45.511Z,99.90
2022-09-14T07:48:57.092Z,99.90
2022-09-14T07:53:02.866Z,99.90
2022-09-14T07:57:07.530Z,99.90
2022-09-14T08:01:14.342Z,99.90
2022-09-14T08:05:21.429Z,99.90
2022-09-14T08:09:25.873Z,99.30
2022-09-14T08:13:29.092Z,98.10
2022-09-14T08:17:32.201Z,99.10
2022-09-14T08:21:37.201Z,98.10
2022-09-14T08:25:40.346Z,97.10
2022-09-14T08:29:43.563Z,95.90
2022-09-14T08:33:48.538Z,96.10
2022-09-14T08:37:53.722Z,95.30
2022-09-14T08:42:00.211Z,95.40
2022-09-14T08:46:08.251Z,96.40
2022-09-14T08:50:17.776Z,96.10
2022-09-14T08:54:22.471Z,97.20
2022-09-14T08:58:42.660Z,97.20
2022-09-14T09:03:22.472Z,99.20
2022-09-14T09:07:33.672Z,97.40
2022-09-14T09:11:42.101Z,93.70
2022-09-14T09:15:49.382Z,89.20
2022-09-14T09:20:05.448Z,84.60
2022-09-14T09:24:17.087Z,84.20
2022-09-14T09:28:23.107Z,84.10
2022-09-14T09:32:27.553Z,82.30
2022-09-14T09:36:35.859Z,84.00
2022-09-14T09:40:45.037Z,84.00
2022-09-14T09:45:07.591Z,87.00
2022-09-14T09:49:20.142Z,85.50
2022-09-14T09:53:25.123Z,87.60
2022-09-14T09:57:33.982Z,86.40
2022-09-14T10:01:38.614Z,86.70
2022-09-14T10:05:41.982Z,87.20
2022-09-14T10:09:45.222Z,86.70
2022-09-14T10:13:48.761Z,83.70
2022-09-14T10:18:07.716Z,80.20
2022-09-14T10:22:27.087Z,80.10
2022-09-14T10:26:35.074Z,77.40
2022-09-14T10:30:43.797Z,75.90
2022-09-14T10:34:48.440Z,75.10
2022-09-14T10:38:55.208Z,75.80
2022-09-14T10:43:10.977Z,73.40
2022-09-14T10:47:26.918Z,72.90
2022-09-14T10:51:41.942Z,71.40
2022-09-14T10:55:53.348Z,71.10
2022-09-14T11:00:00.848Z,74.20
2022-09-14T11:04:24.972Z,76.20
2022-09-14T11:08:34.077Z,73.60
2022-09-14T11:12:47.535Z,71.20
2022-09-14T11:17:15.455Z,69.60
2022-09-14T11:21:26.540Z,68.30
2022-09-14T11:25:38.717Z,65.00
2022-09-14T11:29:47.917Z,65.90
2022-09-14T11:33:57.092Z,65.50
2022-09-14T11:38:03.232Z,63.90
2022-09-14T11:42:11.896Z,62.30
2022-09-14T11:46:19.106Z,60.30
2022-09-14T11:50:26.568Z,58.10
2022-09-14T11:54:30.021Z,59.20
2022-09-14T11:58:34.770Z,57.80
2022-09-14T12:03:00.864Z,58.10
2022-09-14T12:07:04.078Z,54.80
2022-09-14T12:11:32.362Z,56.30
2022-09-14T12:15:38.178Z,60.50
2022-09-14T12:19:41.708Z,58.10
2022-09-14T12:23:51.845Z,59.40
2022-09-14T12:27:55.118Z,57.30
2022-09-14T12:32:25.541Z,57.30
2022-09-14T12:36:59.201Z,59.60
2022-09-14T12:41:24.582Z,57.60
2022-09-14T12:45:51.097Z,57.90
2022-09-14T12:49:57.846Z,57.20
2022-09-14T12:54:08.244Z,56.90
2022-09-14T12:58:23.036Z,58.00
2022-09-14T13:02:52.529Z,57.30
2022-09-14T13:06:59.856Z,58.10
2022-09-14T13:11:03.002Z,59.60
2022-09-14T13:15:08.774Z,61.20
2022-09-14T13:19:23.232Z,67.00
2022-09-14T13:23:30.269Z,66.80
2022-09-14T13:27:35.550Z,67.30
2022-09-14T13:31:40.694Z,65.90
2022-09-14T13:35:48.768Z,59.10
2022-09-14T13:39:56.002Z,57.30
2022-09-14T13:43:59.831Z,58.50
2022-09-14T13:48:03.550Z,56.60
2022-09-14T13:52:50.217Z,53.90
2022-09-14T13:57:16.958Z,53.10
2022-09-14T14:01:29.417Z,52.50
2022-09-14T14:05:34.318Z,51.70
2022-09-14T14:09:43.797Z,54.70
2022-09-14T14:13:48.454Z,53.00
2022-09-14T14:17:52.236Z,53.70
2022-09-14T14:22:13.456Z,51.40
2022-09-14T14:26:21.086Z,50.70
2022-09-14T14:30:27.021Z,52.70
2022-09-14T14:34:31.058Z,56.30
2022-09-14T14:38:34.339Z,56.30
2022-09-14T14:42:37.976Z,56.60
2022-09-14T14:46:44.294Z,61.60
2022-09-14T14:50:47.476Z,69.50
2022-09-14T14:54:50.861Z,74.40
2022-09-14T14:58:53.997Z,76.50
2022-09-14T15:02:58.855Z,79.30
2022-09-14T15:07:02.096Z,82.80
2022-09-14T15:11:05.318Z,85.80
2022-09-14T15:15:14.256Z,88.30
2022-09-14T15:19:19.409Z,89.80
2022-09-14T15:23:22.603Z,89.40
2022-09-14T15:27:25.882Z,89.00
2022-09-14T15:31:29.541Z,90.40
2022-09-14T15:35:35.137Z,91.70
2022-09-14T15:39:38.416Z,92.50
2022-09-14T15:43:41.571Z,93.50
2022-09-14T15:47:47.034Z,93.70
2022-09-14T15:51:53.505Z,95.10
2022-09-14T15:55:58.792Z,95.80
2022-09-14T16:00:02.093Z,96.80
2022-09-14T16:04:11.552Z,97.50
2022-09-14T16:08:16.419Z,97.90
2022-09-14T16:12:19.741Z,97.80
2022-09-14T16:16:23.108Z,97.40
2022-09-14T16:20:26.490Z,98.40
2022-09-14T16:24:32.797Z,99.90
2022-09-14T16:28:35.963Z,99.90
2022-09-14T16:32:39.165Z,99.90
2022-09-14T16:36:43.300Z,99.90
2022-09-14T16:40:48.041Z,99.90
2022-09-14T16:44:51.198Z,99.90
2022-09-14T16:48:54.915Z,99.90
2022-09-14T16:52:58.304Z,99.90
2022-09-14T16:57:04.719Z,99.90
2022-09-14T17:01:10.586Z,99.90
2022-09-14T17:05:14.137Z,99.90
2022-09-14T17:09:20.505Z,99.90
2022-09-14T17:13:26.391Z,99.90
2022-09-14T17:17:30.743Z,99.90
2022-09-14T17:21:38.588Z,99.90
2022-09-14T17:25:58.799Z,99.90
2022-09-14T17:30:08.272Z,99.90
2022-09-14T17:34:13.472Z,99.90
2022-09-14T17:38:17.125Z,99.90
2022-09-14T17:42:20.779Z,99.90
2022-09-14T17:46:26.486Z,99.90
2022-09-14T17:50:30.122Z,99.90
2022-09-14T17:54:33.814Z,99.90
2022-09-14T17:58:38.188Z,99.90
2022-09-14T18:02:43.347Z,99.90
2022-09-14T18:06:48.664Z,99.90
2022-09-14T18:10:52.178Z,99.90
2022-09-14T18:14:55.736Z,99.90
2022-09-14T18:19:01.195Z,99.90
2022-09-14T18:23:05.260Z,99.90
2022-09-14T18:27:09.034Z,99.90
2022-09-14T18:31:14.514Z,99.90
2022-09-14T18:35:19.546Z,99.90
2022-09-14T18:39:23.273Z,99.90
2022-09-14T18:43:27.041Z,99.90
2022-09-14T18:47:30.682Z,99.90
2022-09-14T18:51:35.338Z,99.90
2022-09-14T18:55:38.882Z,99.90
2022-09-14T18:59:42.894Z,99.90
2022-09-14T19:03:46.442Z,99.90
2022-09-14T19:07:51.802Z,99.90
2022-09-14T19:11:55.473Z,99.90
2022-09-14T19:15:58.897Z,99.90
2022-09-14T19:20:03.779Z,99.90
2022-09-14T19:24:14.701Z,99.90
2022-09-14T19:28:18.977Z,99.90
2022-09-14T19:32:22.636Z,99.90
2022-09-14T19:36:27.774Z,99.90
2022-09-14T19:40:32.839Z,99.90
2022-09-14T19:44:36.572Z,99.90
2022-09-14T19:48:40.923Z,99.90
2022-09-14T19:52:45.569Z,99.90
2022-09-14T19:56:50.671Z,99.90
2022-09-14T20:00:55.590Z,99.90
2022-09-14T20:04:59.043Z,99.90
2022-09-14T20:09:11.841Z,99.90
2022-09-14T20:19:12.423Z,99.90
2022-09-14T20:23:16.417Z,99.90
2022-09-14T20:27:19.781Z,99.90
2022-09-14T20:31:24.695Z,99.90
2022-09-14T20:35:28.078Z,99.90
2022-09-14T20:39:31.685Z,99.90
2022-09-14T20:43:36.772Z,99.90
2022-09-14T20:47:44.087Z,99.90
2022-09-14T20:51:47.455Z,99.90
2022-09-14T20:55:54.483Z,99.90
2022-09-14T20:59:58.220Z,99.90
2022-09-14T21:04:07.174Z,99.90
2022-09-14T21:08:10.378Z,99.90
2022-09-14T21:12:15.208Z,99.90
2022-09-14T21:16:20.667Z,99.90
2022-09-14T21:20:26.479Z,99.90
2022-09-14T21:24:31.155Z,99.90
2022-09-14T21:28:35.384Z,99.90
2022-09-14T21:32:38.553Z,99.90
2022-09-14T21:36:45.329Z,99.90
2022-09-14T21:40:48.606Z,99.90
2022-09-14T21:44:51.933Z,99.90
2022-09-14T21:48:56.986Z,99.90
2022-09-14T21:53:01.573Z,99.90
2022-09-14T21:57:05.199Z,99.90
2022-09-14T22:01:12.162Z,99.90
2022-09-14T22:05:15.525Z,99.90
2022-09-14T22:09:21.909Z,99.90
2022-09-14T22:13:25.245Z,99.90
2022-09-14T22:17:29.121Z,99.90
2022-09-14T22:21:36.563Z,99.90
2022-09-14T22:25:45.009Z,99.90
2022-09-14T22:29:48.197Z,99.90
2022-09-14T22:33:55.083Z,99.90
2022-09-14T22:37:58.703Z,99.90
2022-09-14T22:42:03.352Z,99.90
2022-09-14T22:46:09.329Z,99.90
2022-09-14T22:50:12.610Z,99.90
2022-09-14T22:54:16.036Z,99.90
2022-09-14T22:58:22.651Z,99.90
2022-09-14T23:02:26.095Z,99.90
2022-09-14T23:06:30.485Z,99.90
2022-09-14T23:10:38.483Z,99.90
2022-09-14T23:14:43.074Z,99.90
2022-09-14T23:18:50.998Z,99.90
2022-09-14T23:22:54.229Z,99.90
2022-09-14T23:26:57.848Z,99.90
2022-09-14T23:31:02.748Z,99.90
2022-09-14T23:35:07.739Z,99.90
2022-09-14T23:39:11.574Z,99.90
2022-09-14T23:43:14.774Z,99.90
2022-09-14T23:47:19.524Z,99.90
2022-09-14T23:51:23.044Z,99.90
2022-09-14T23:55:26.428Z,99.90
2022-09-14T23:59:29.631Z,99.90
